createdAt,value
2023-04-02T00:00:16.233Z,13.98
2023-04-02T00:02:56.721Z,13.30
2023-04-02T00:05:50.234Z,14.15
2023-04-02T00:08:26.997Z,13.25
2023-04-02T00:10:56.929Z,14.25
2023-04-02T00:13:31.108Z,13.82
2023-04-02T00:16:00.125Z,13.97
2023-04-02T00:18:28.080Z,15.77
2023-04-02T00:21:05.810Z,14.63
2023-04-02T00:23:32.818Z,16.38
2023-04-02T00:26:00.111Z,15.43
2023-04-02T00:28:27.170Z,16.02
2023-04-02T00:30:56.636Z,17.40
2023-04-02T00:33:28.643Z,18.00
2023-04-02T00:35:56.641Z,18.65
2023-04-02T00:38:26.960Z,18.65
2023-04-02T00:40:56.976Z,20.00
2023-04-02T00:43:25.074Z,21.90
2023-04-02T00:45:57.072Z,20.75
2023-04-02T00:48:44.945Z,19.83
2023-04-02T00:51:18.275Z,19.88
2023-04-02T00:53:47.519Z,20.77
2023-04-02T00:56:20.126Z,22.58
2023-04-02T00:58:51.961Z,21.75
2023-04-02T01:01:22.923Z,22.83
2023-04-02T01:03:58.331Z,22.27
2023-04-02T01:06:30.944Z,24.05
2023-04-02T01:09:12.680Z,24.42
2023-04-02T01:11:54.774Z,23.40
2023-04-02T01:14:36.630Z,24.70
2023-04-02T01:17:10.861Z,27.88
2023-04-02T01:20:12.780Z,24.70
2023-04-02T01:22:48.783Z,25.85
2023-04-02T01:25:22.414Z,25.88
2023-04-02T01:27:55.384Z,27.33
2023-04-02T01:30:24.274Z,27.92
2023-04-02T01:32:52.870Z,26.90
2023-04-02T01:35:21.875Z,28.88
2023-04-02T01:37:56.172Z,29.42
2023-04-02T01:40:34.898Z,30.75
2023-04-02T01:43:13.396Z,29.90
2023-04-02T01:45:41.872Z,30.77
2023-04-02T01:48:14.568Z,27.52
2023-04-02T01:50:44.253Z,28.45
2023-04-02T01:53:13.635Z,29.63
2023-04-02T01:55:43.916Z,30.88
2023-04-02T01:58:12.694Z,27.77
2023-04-02T02:00:46.711Z,29.33
2023-04-02T02:03:14.294Z,28.95
2023-04-02T02:05:41.483Z,29.27
2023-04-02T02:08:21.989Z,27.80
2023-04-02T02:10:49.727Z,28.88
2023-04-02T02:13:16.862Z,27.65
2023-04-02T02:15:45.707Z,25.42
2023-04-02T02:18:13.796Z,25.98
2023-04-02T02:20:41.714Z,26.15
2023-04-02T02:23:12.381Z,24.63
2023-04-02T02:25:40.284Z,24.60
2023-04-02T02:28:10.364Z,25.35
2023-04-02T02:30:39.861Z,25.65
2023-04-02T02:33:16.463Z,27.48
2023-04-02T02:35:49.147Z,27.45
2023-04-02T02:38:32.505Z,28.30
2023-04-02T02:41:04.439Z,28.08
2023-04-02T02:43:33.239Z,29.02
2023-04-02T02:46:05.050Z,28.05
2023-04-02T02:48:38.427Z,25.95
2023-04-02T02:51:09.349Z,25.75
2023-04-02T02:53:46.778Z,26.00
2023-04-02T02:56:14.225Z,26.00
2023-04-02T02:58:41.314Z,25.35
2023-04-02T03:01:08.386Z,25.15
2023-04-02T03:03:37.010Z,28.10
2023-04-02T03:06:07.466Z,26.40
2023-04-02T03:08:40.275Z,27.33
2023-04-02T03:11:12.714Z,27.80
2023-04-02T03:13:42.060Z,25.93
2023-04-02T03:16:15.414Z,28.70
2023-04-02T03:18:49.986Z,25.60
2023-04-02T03:21:28.515Z,24.50
2023-04-02T03:23:58.788Z,25.25
2023-04-02T03:26:31.802Z,23.77
2023-04-02T03:29:04.919Z,23.85
2023-04-02T03:31:36.718Z,23.98
2023-04-02T03:34:13.040Z,24.37
2023-04-02T03:36:48.115Z,22.05
2023-04-02T03:39:20.324Z,23.08
2023-04-02T03:41:52.056Z,22.47
2023-04-02T03:44:25.081Z,21.67
2023-04-02T03:46:59.028Z,23.65
2023-04-02T03:49:33.399Z,23.27
2023-04-02T03:52:05.907Z,22.23
2023-04-02T03:54:33.531Z,22.55
2023-04-02T03:57:01.448Z,24.35
2023-04-02T03:59:37.461Z,23.17
2023-04-02T04:02:16.618Z,22.50
2023-04-02T04:04:47.224Z,21.00
2023-04-02T04:07:21.473Z,18.58
2023-04-02T04:09:51.851Z,20.52
2023-04-02T04:12:27.183Z,19.63
2023-04-02T04:14:59.677Z,18.70
2023-04-02T04:17:34.732Z,18.75
2023-04-02T04:20:14.942Z,19.73
2023-04-02T04:22:41.787Z,19.77
2023-04-02T04:25:21.157Z,19.38
2023-04-02T04:27:58.302Z,19.00
2023-04-02T04:30:30.437Z,20.63
2023-04-02T04:33:02.030Z,19.80
2023-04-02T04:35:33.598Z,20.15
2023-04-02T04:38:05.833Z,19.52
2023-04-02T04:40:36.279Z,20.00
2023-04-02T04:43:06.355Z,19.27
2023-04-02T04:45:42.712Z,17.65
2023-04-02T04:48:16.264Z,18.67
2023-04-02T04:50:50.648Z,19.15
2023-04-02T04:53:21.430Z,19.57
2023-04-02T04:55:50.369Z,17.55
2023-04-02T04:58:23.246Z,18.73
2023-04-02T05:01:03.791Z,18.92
2023-04-02T05:03:35.625Z,20.10
2023-04-02T05:06:11.398Z,19.77
2023-04-02T05:08:43.341Z,19.73
2023-04-02T05:11:14.733Z,20.73
2023-04-02T05:13:47.435Z,19.33
2023-04-02T05:16:17.924Z,19.67
2023-04-02T05:18:49.925Z,19.60
2023-04-02T05:21:24.096Z,19.57
2023-04-02T05:23:55.134Z,19.03
2023-04-02T05:26:25.860Z,19.45
2023-04-02T05:28:57.112Z,18.37
2023-04-02T05:31:28.040Z,19.73
2023-04-02T05:33:56.759Z,17.95
2023-04-02T05:36:27.941Z,18.75
2023-04-02T05:38:57.301Z,19.57
2023-04-02T05:41:27.223Z,16.23
2023-04-02T05:44:06.951Z,18.50
2023-04-02T05:46:38.007Z,17.17
2023-04-02T05:49:12.165Z,16.73
2023-04-02T05:51:45.476Z,16.98
2023-04-02T05:54:21.286Z,16.85
2023-04-02T05:56:52.483Z,15.63
2023-04-02T05:59:23.051Z,16.17
2023-04-02T06:01:54.406Z,16.02
2023-04-02T06:04:26.969Z,15.93
2023-04-02T06:07:01.712Z,15.35
2023-04-02T06:09:41.101Z,16.07
2023-04-02T06:12:19.306Z,14.93
2023-04-02T06:14:46.527Z,17.20
2023-04-02T06:17:16.002Z,15.30
2023-04-02T06:19:43.624Z,15.00
2023-04-02T06:22:22.557Z,14.40
2023-04-02T06:24:56.230Z,13.77
2023-04-02T06:27:26.106Z,13.80
2023-04-02T06:29:58.487Z,14.23
2023-04-02T06:32:27.032Z,13.85
2023-04-02T06:34:54.949Z,14.17
2023-04-02T06:37:28.200Z,14.50
2023-04-02T06:39:56.624Z,15.32
2023-04-02T06:42:27.612Z,15.37
2023-04-02T06:44:55.032Z,15.30
2023-04-02T06:47:30.629Z,17.60
2023-04-02T06:50:04.743Z,16.70
2023-04-02T06:52:36.310Z,17.52
2023-04-02T06:55:19.308Z,16.58
2023-04-02T06:57:46.664Z,16.38
2023-04-02T07:00:25.880Z,16.13
2023-04-02T07:02:56.187Z,15.55
2023-04-02T07:05:23.485Z,16.07
2023-04-02T07:07:51.990Z,14.53
2023-04-02T07:10:20.425Z,14.70
2023-04-02T07:12:47.358Z,12.77
2023-04-02T07:15:16.205Z,12.80
2023-04-02T07:17:43.314Z,12.63
2023-04-02T07:20:26.675Z,12.37
2023-04-02T07:22:55.481Z,11.77
2023-04-02T07:25:23.030Z,11.63
2023-04-02T07:27:50.696Z,11.35
2023-04-02T07:30:17.676Z,11.43
2023-04-02T07:32:44.798Z,13.70
2023-04-02T07:35:11.801Z,14.00
2023-04-02T07:37:39.071Z,14.87
2023-04-02T07:40:15.963Z,13.97
2023-04-02T07:42:42.856Z,13.27
2023-04-02T07:45:10.731Z,15.73
2023-04-02T07:47:37.644Z,14.88
2023-04-02T07:50:05.450Z,16.08
2023-04-02T07:52:32.367Z,15.30
2023-04-02T07:54:59.207Z,14.65
2023-04-02T07:57:27.585Z,14.23
2023-04-02T07:59:56.805Z,15.63
2023-04-02T08:02:24.845Z,13.32
2023-04-02T08:04:52.294Z,14.25
2023-04-02T08:07:19.222Z,14.88
2023-04-02T08:09:46.073Z,14.38
2023-04-02T08:12:13.772Z,15.47
2023-04-02T08:14:42.083Z,15.77
2023-04-02T08:17:08.964Z,17.35
2023-04-02T08:19:47.868Z,16.60
2023-04-02T08:22:20.912Z,17.10
2023-04-02T08:24:47.867Z,18.20
2023-04-02T08:27:15.247Z,16.57
2023-04-02T08:29:43.667Z,17.38
2023-04-02T08:32:15.675Z,16.13
2023-04-02T08:34:42.697Z,17.15
2023-04-02T08:37:11.440Z,16.80
2023-04-02T08:39:38.573Z,15.47
2023-04-02T08:42:18.191Z,14.43
2023-04-02T08:44:57.542Z,13.90
2023-04-02T08:47:26.520Z,13.68
2023-04-02T08:49:57.782Z,13.45
2023-04-02T08:52:27.036Z,13.73
2023-04-02T08:54:56.225Z,14.60
2023-04-02T08:57:31.849Z,14.18
2023-04-02T09:00:06.643Z,12.73
2023-04-02T09:02:39.309Z,12.63
2023-04-02T09:05:15.746Z,12.63
2023-04-02T09:07:42.711Z,11.77
2023-04-02T09:10:14.105Z,11.55
2023-04-02T09:12:43.126Z,12.25
2023-04-02T09:15:24.725Z,12.23
2023-04-02T09:17:59.565Z,12.65
2023-04-02T09:20:28.582Z,14.65
2023-04-02T09:22:56.812Z,15.45
2023-04-02T09:25:29.884Z,13.70
2023-04-02T09:28:00.033Z,12.52
2023-04-02T09:30:40.953Z,13.13
2023-04-02T09:33:08.089Z,12.48
2023-04-02T09:35:37.125Z,11.40
2023-04-02T09:38:22.045Z,10.75
2023-04-02T09:40:51.589Z,10.48
2023-04-02T09:43:20.642Z,10.38
2023-04-02T09:45:59.453Z,12.10
2023-04-02T09:48:30.510Z,12.35
2023-04-02T09:51:06.847Z,13.38
2023-04-02T09:53:36.358Z,13.07
2023-04-02T09:56:12.521Z,12.23
2023-04-02T09:58:39.725Z,10.27
2023-04-02T10:01:31.488Z,9.98
2023-04-02T10:03:59.687Z,9.40
2023-04-02T10:06:28.687Z,10.50
2023-04-02T10:08:56.183Z,10.55
2023-04-02T10:11:36.483Z,11.85
2023-04-02T10:14:14.824Z,11.80
2023-04-02T10:16:47.668Z,11.35
2023-04-02T10:19:22.971Z,12.35
2023-04-02T10:21:50.814Z,13.15
2023-04-02T10:24:18.130Z,12.50
2023-04-02T10:26:52.981Z,14.02
2023-04-02T10:29:39.052Z,13.95
2023-04-02T10:32:14.525Z,12.95
2023-04-02T10:34:45.802Z,12.10
2023-04-02T10:37:44.871Z,12.63
2023-04-02T10:40:17.068Z,11.77
2023-04-02T10:42:56.749Z,12.35
2023-04-02T10:45:37.003Z,11.63
2023-04-02T10:48:15.647Z,11.40
2023-04-02T10:50:49.703Z,10.95
2023-04-02T10:53:19.276Z,9.97
2023-04-02T10:55:49.091Z,9.88
2023-04-02T10:58:24.317Z,9.90
2023-04-02T11:00:55.168Z,9.55
2023-04-02T11:03:34.649Z,9.82
2023-04-02T11:06:08.989Z,9.20
2023-04-02T11:08:41.679Z,9.07
2023-04-02T11:11:13.460Z,9.02
2023-04-02T11:13:50.920Z,8.95
2023-04-02T11:16:18.218Z,9.00
2023-04-02T11:19:21.699Z,9.70
2023-04-02T11:21:58.709Z,9.68
2023-04-02T11:24:37.380Z,8.90
2023-04-02T11:27:14.621Z,8.80
2023-04-02T11:29:44.032Z,9.25
2023-04-02T11:32:27.395Z,8.57
2023-04-02T11:35:07.275Z,7.22
2023-04-02T11:37:37.164Z,8.15
2023-04-02T11:40:22.799Z,7.85
2023-04-02T11:42:51.289Z,6.40
2023-04-02T11:45:53.750Z,7.47
2023-04-02T11:48:29.724Z,6.75
2023-04-02T11:50:58.570Z,7.15
2023-04-02T11:53:31.601Z,6.75
2023-04-02T11:56:18.927Z,7.50
2023-04-02T11:58:59.207Z,5.97
2023-04-02T12:01:45.731Z,6.65
2023-04-02T12:04:48.455Z,6.82
2023-04-02T12:07:53.405Z,6.25
2023-04-02T12:10:22.291Z,5.90
2023-04-02T12:12:50.634Z,5.75
2023-04-02T12:15:38.214Z,6.17
2023-04-02T12:18:11.621Z,5.72
2023-04-02T12:20:38.973Z,6.15
2023-04-02T12:23:18.381Z,6.28
2023-04-02T12:25:52.001Z,6.10
2023-04-02T12:28:19.718Z,5.53
2023-04-02T12:30:47.700Z,5.00
2023-04-02T12:33:27.904Z,5.68
2023-04-02T12:35:57.855Z,4.82
2023-04-02T12:38:28.202Z,5.22
2023-04-02T12:40:57.143Z,5.57
2023-04-02T12:43:25.874Z,5.15
2023-04-02T12:45:54.431Z,5.07
2023-04-02T12:48:22.919Z,4.25
2023-04-02T12:50:50.756Z,4.25
2023-04-02T12:53:21.593Z,4.25
2023-04-02T12:55:51.596Z,4.53
2023-04-02T12:58:30.160Z,4.50
2023-04-02T13:01:13.218Z,3.85
2023-04-02T13:03:40.452Z,4.07
2023-04-02T13:06:21.917Z,3.72
2023-04-02T13:08:49.186Z,3.72
2023-04-02T13:11:17.656Z,3.00
2023-04-02T13:13:46.697Z,2.78
2023-04-02T13:16:38.517Z,3.13
2023-04-02T13:19:24.814Z,2.50
2023-04-02T13:21:53.126Z,3.00
2023-04-02T13:24:21.490Z,2.90
2023-04-02T13:26:51.276Z,3.30
2023-04-02T13:29:22.789Z,2.70
2023-04-02T13:31:50.006Z,2.95
2023-04-02T13:34:18.315Z,3.28
2023-04-02T13:36:45.651Z,4.03
2023-04-02T13:39:12.522Z,3.63
2023-04-02T13:41:42.882Z,4.07
2023-04-02T13:44:20.343Z,4.28
2023-04-02T13:46:47.578Z,4.40
2023-04-02T13:49:14.882Z,4.75
2023-04-02T13:51:47.394Z,5.05
2023-04-02T13:54:21.966Z,6.25
2023-04-02T13:56:49.093Z,6.57
2023-04-02T13:59:16.294Z,6.53
2023-04-02T14:01:47.388Z,7.07
2023-04-02T14:04:20.575Z,7.72
2023-04-02T14:07:16.360Z,6.97
2023-04-02T14:09:55.991Z,6.78
2023-04-02T14:12:33.645Z,6.03
2023-04-02T14:15:16.331Z,5.40
2023-04-02T14:17:59.620Z,5.60
2023-04-02T14:20:38.220Z,4.80
2023-04-02T14:23:25.892Z,4.77
2023-04-02T14:26:04.948Z,4.57
2023-04-02T14:28:40.468Z,4.88
2023-04-02T14:35:09.225Z,3.88
2023-04-02T14:38:17.880Z,3.90
2023-04-02T14:40:49.739Z,3.97
2023-04-02T14:43:22.407Z,3.95
2023-04-02T14:45:59.969Z,3.90
2023-04-02T14:48:48.211Z,3.75
2023-04-02T14:51:24.908Z,3.95
2023-04-02T14:53:59.982Z,5.00
2023-04-02T14:56:27.726Z,4.22
2023-04-02T14:59:09.742Z,4.72
2023-04-02T15:01:40.688Z,5.15
2023-04-02T15:04:13.607Z,5.63
2023-04-02T15:06:45.803Z,5.20
2023-04-02T15:09:19.386Z,5.80
2023-04-02T15:11:49.802Z,4.90
2023-04-02T15:14:20.096Z,5.10
2023-04-02T15:16:47.090Z,6.07
2023-04-02T15:19:16.211Z,5.82
2023-04-02T15:22:08.712Z,6.10
2023-04-02T15:24:45.384Z,9.57
2023-04-02T15:27:27.106Z,5.80
2023-04-02T15:30:01.385Z,6.00
2023-04-02T15:32:36.345Z,7.18
2023-04-02T15:35:17.850Z,9.48
2023-04-02T15:37:58.986Z,6.90
2023-04-02T15:40:37.937Z,6.97
2023-04-02T15:43:14.327Z,6.97
2023-04-02T15:45:51.060Z,6.75
2023-04-02T15:48:52.773Z,6.45
2023-04-02T15:51:31.984Z,7.18
2023-04-02T15:54:07.337Z,6.45
2023-04-02T15:56:54.352Z,7.68
2023-04-02T15:59:37.692Z,6.05
2023-04-02T16:02:23.450Z,6.20
2023-04-02T16:04:59.408Z,6.78
2023-04-02T16:07:45.190Z,5.63
2023-04-02T16:10:33.889Z,6.53
2023-04-02T16:13:15.533Z,7.70
2023-04-02T16:15:46.445Z,7.45
2023-04-02T16:18:26.203Z,7.22
2023-04-02T16:20:54.437Z,7.35
2023-04-02T16:23:29.641Z,7.30
2023-04-02T16:26:06.412Z,7.68
2023-04-02T16:28:41.893Z,7.18
2023-04-02T16:31:14.216Z,6.15
2023-04-02T16:33:54.642Z,7.43
2023-04-02T16:36:30.833Z,6.60
2023-04-02T16:39:04.550Z,5.05
2023-04-02T16:41:48.184Z,6.35
2023-04-02T16:44:28.765Z,6.75
2023-04-02T16:47:11.605Z,6.93
2023-04-02T16:49:47.939Z,6.95
2023-04-02T16:52:28.183Z,6.15
2023-04-02T16:55:07.328Z,6.60
2023-04-02T16:57:48.805Z,6.10
2023-04-02T17:00:24.092Z,6.13
2023-04-02T17:03:05.098Z,6.30
2023-04-02T17:05:33.562Z,5.82
2023-04-02T17:08:16.530Z,6.88
2023-04-02T17:11:01.521Z,6.00
2023-04-02T17:13:43.475Z,5.40
2023-04-02T17:16:18.509Z,6.30
2023-04-02T17:18:48.548Z,6.57
2023-04-02T17:21:18.980Z,6.53
2023-04-02T17:26:24.585Z,6.45
2023-04-02T17:29:09.152Z,6.00
2023-04-02T17:31:40.861Z,6.90
2023-04-02T17:34:13.442Z,5.97
2023-04-02T17:36:47.757Z,6.90
2023-04-02T17:39:32.314Z,5.85
2023-04-02T17:42:10.230Z,5.78
2023-04-02T17:45:25.394Z,7.40
2023-04-02T17:48:19.228Z,6.70
2023-04-02T17:50:54.679Z,5.82
2023-04-02T17:53:39.843Z,6.20
2023-04-02T17:56:37.828Z,6.15
2023-04-02T17:59:17.171Z,6.53
2023-04-02T18:01:55.265Z,6.20
2023-04-02T18:04:34.473Z,7.85
2023-04-02T18:07:16.376Z,6.17
2023-04-02T18:12:27.668Z,6.43
2023-04-02T18:15:30.916Z,6.97
2023-04-02T18:18:08.331Z,7.40
2023-04-02T18:20:39.671Z,6.47
2023-04-02T18:23:17.192Z,7.23
2023-04-02T18:25:54.246Z,7.00
2023-04-02T18:28:40.431Z,6.73
2023-04-02T18:31:17.866Z,6.53
2023-04-02T18:34:13.217Z,6.80
2023-04-02T18:36:51.094Z,7.47
2023-04-02T18:39:29.603Z,6.97
2023-04-02T18:42:04.730Z,7.27
2023-04-02T18:44:49.394Z,8.67
2023-04-02T18:47:23.762Z,8.00
2023-04-02T18:49:57.786Z,12.60
2023-04-02T18:52:25.324Z,18.07
2023-04-02T18:54:56.423Z,15.80
2023-04-02T18:57:29.031Z,10.03
2023-04-02T19:00:02.022Z,9.33
2023-04-02T19:02:40.566Z,10.32
2023-04-02T19:05:20.569Z,11.10
2023-04-02T19:07:50.708Z,14.57
2023-04-02T19:10:30.598Z,13.67
2023-04-02T19:12:57.592Z,16.30
2023-04-02T19:15:35.108Z,14.33
2023-04-02T19:18:15.907Z,9.50
2023-04-02T19:20:50.829Z,10.73
2023-04-02T19:23:31.051Z,9.63
2023-04-02T19:26:02.606Z,9.93
2023-04-02T19:28:34.147Z,9.53
2023-04-02T19:31:17.099Z,11.47
2023-04-02T19:33:51.008Z,11.63
2023-04-02T19:39:14.596Z,14.40
2023-04-02T19:41:47.961Z,13.17
2023-04-02T19:44:16.915Z,17.23
2023-04-02T19:46:44.148Z,25.57
2023-04-02T19:49:14.765Z,19.93
2023-04-02T19:51:43.165Z,23.63
2023-04-02T19:54:10.489Z,22.10
2023-04-02T19:56:37.608Z,19.33
2023-04-02T19:59:17.275Z,17.97
2023-04-02T20:01:45.566Z,17.67
2023-04-02T20:04:12.470Z,17.53
2023-04-02T20:06:39.438Z,14.63
2023-04-02T20:09:08.858Z,13.03
2023-04-02T20:11:37.415Z,14.37
2023-04-02T20:14:05.234Z,14.23
2023-04-02T20:16:33.028Z,15.70
2023-04-02T20:19:00.030Z,18.17
2023-04-02T20:21:27.631Z,18.47
2023-04-02T20:23:54.879Z,17.30
2023-04-02T20:26:23.442Z,17.33
2023-04-02T20:28:50.568Z,17.03
2023-04-02T20:31:18.734Z,15.57
2023-04-02T20:33:46.717Z,14.33
2023-04-02T20:36:15.902Z,16.57
2023-04-02T20:38:43.497Z,16.87
2023-04-02T20:41:10.911Z,19.07
2023-04-02T20:43:40.696Z,19.90
2023-04-02T20:46:10.838Z,19.57
2023-04-02T20:48:39.526Z,20.90
2023-04-02T20:51:08.777Z,19.37
2023-04-02T20:53:37.822Z,20.03
2023-04-02T20:56:06.494Z,19.57
2023-04-02T20:58:33.819Z,20.50
2023-04-02T21:01:10.733Z,19.13
2023-04-02T21:03:39.783Z,19.10
2023-04-02T21:06:11.966Z,19.77
2023-04-02T21:08:38.922Z,19.90
2023-04-02T21:11:05.993Z,20.07
2023-04-02T21:13:36.223Z,19.37
2023-04-02T21:16:03.959Z,20.60
2023-04-02T21:18:32.570Z,19.67
2023-04-02T21:21:01.650Z,20.37
2023-04-02T21:23:29.079Z,22.10
2023-04-02T21:25:57.844Z,23.57
2023-04-02T21:28:25.381Z,22.63
2023-04-02T21:30:52.515Z,23.53
2023-04-02T21:33:19.341Z,26.37
2023-04-02T21:35:47.797Z,25.53
2023-04-02T21:38:14.652Z,25.27
2023-04-02T21:40:41.607Z,24.63
2023-04-02T21:43:08.564Z,26.00
2023-04-02T21:45:35.624Z,26.07
2023-04-02T21:48:02.629Z,26.30
2023-04-02T21:50:29.642Z,21.20
2023-04-02T21:52:57.867Z,20.80
2023-04-02T21:55:24.862Z,20.60
2023-04-02T21:57:51.736Z,24.17
2023-04-02T22:00:18.844Z,23.00
2023-04-02T22:02:45.963Z,21.93
2023-04-02T22:05:12.874Z,24.20
2023-04-02T22:07:39.830Z,22.23
2023-04-02T22:10:08.810Z,24.33
2023-04-02T22:12:35.652Z,22.40
2023-04-02T22:15:02.584Z,22.87
2023-04-02T22:17:29.614Z,24.67
2023-04-02T22:19:56.499Z,22.43
2023-04-02T22:22:23.389Z,26.43
2023-04-02T22:24:50.260Z,26.27
2023-04-02T22:27:18.506Z,27.03
2023-04-02T22:29:45.385Z,26.40
2023-04-02T22:32:12.280Z,26.43
2023-04-02T22:34:45.695Z,26.30
2023-04-02T22:37:12.652Z,27.52
2023-04-02T22:39:39.561Z,27.67
2023-04-02T22:42:07.448Z,27.60
2023-04-02T22:44:35.830Z,28.30
2023-04-02T22:47:02.712Z,26.03
2023-04-02T22:49:29.659Z,27.33
2023-04-02T22:51:56.482Z,25.70
2023-04-02T22:54:23.356Z,25.70
2023-04-02T22:56:50.293Z,25.77
2023-04-02T22:59:17.215Z,23.53
2023-04-02T23:01:45.792Z,23.20
2023-04-02T23:04:12.836Z,21.20
2023-04-02T23:06:39.677Z,21.30
2023-04-02T23:09:06.632Z,22.10
2023-04-02T23:11:33.771Z,21.30
2023-04-02T23:14:00.716Z,22.83
2023-04-02T23:16:29.314Z,21.00
2023-04-02T23:18:58.094Z,18.30
2023-04-02T23:21:26.359Z,20.93
2023-04-02T23:23:53.566Z,20.70
2023-04-02T23:26:22.412Z,17.57
2023-04-02T23:28:50.592Z,19.20
2023-04-02T23:31:20.000Z,18.07
2023-04-02T23:33:46.965Z,18.00
2023-04-02T23:36:20.552Z,18.07
2023-04-02T23:38:47.543Z,18.98
2023-04-02T23:41:15.416Z,18.30
2023-04-02T23:43:42.668Z,16.87
2023-04-02T23:46:09.647Z,19.67
2023-04-02T23:48:36.522Z,16.97
2023-04-02T23:51:03.510Z,17.53
2023-04-02T23:53:31.788Z,17.23
2023-04-02T23:55:58.632Z,16.53
2023-04-02T23:58:25.542Z,16.07
